Portada
METAR-TAF:

METAR-TAF

Aeroports :

Sainte-Marie, Madagascar

latitud: 17-05S, longitud: 049-49E, altitud: 2 m

Observació

L'informe es va fer fa 2 hores i 24 minuts, a les 12:00 UTC
Vent 6 kt del Sud-Est
Temperatura 28°C
Humitat 84%
Pressió 1012 hPa
Visibilitat 10 km o més
Escasses núvols a una alçada de 1700 ft, Cumulonimbus.
Cel ennuvolat a una alçada de 4000 ft
Cel ennuvolat a una alçada de 25000 ft
xàfecs en les proximitats

METAR: FMMS 171200Z 14006KT 9999 VCSH FEW017CB BKN040 BKN250 28/25 Q1012

Hora: 17:24 (14:24 UTC)

Pronòstic

L'informe es va fer fa 3 hores i 24 minuts, a les 11:00 UTC
Pronòstic vàlid del 17 a les 12 UTC al 18 a les 12 UTC
Vent 10 kt del Sud-Est
Visibilitat: 8000 m
Escasses núvols a una alçada de 700 ft
Cel ennuvolat a una alçada de 1700 ft, Cumulonimbus.
Temporalment
l' 17 a les 12 UTC al 18 a les 10 UTC
Visibilitat: 3500 m
pluja

TAF: FMMS 171100Z 1712/1812 14010KT 8000 FEW007 BKN017CB TEMPO 1712/1810 3500 RA

Observacions i pronòstics meteorològics de més de 4000 aeroports (METAR i TAF).

Les estacions disponibles són els punts grocs i vermells al mapa.

Posi el ratolí al punt desitjat per veure el nom de l'estació.

Feu clic per veure les observacions i els pronòstics meteorològics.

Per canviar el mapa: feu clic els botons verds amb una creu de color negre per apropar; al botó verd amb un guió per allunyar la imatge; o en les fletxes verdes per a mapes adjacents.


METAR-TAF: